sensor_id;sensor_type;location;lat;lon;timestamp;P1;durP1;ratioP1;P2;durP2;ratioP2
71080;SDS011;58740;50.672;18.690;2022-10-16T00:01:43;13.90;;;8.20;;
71080;SDS011;58740;50.672;18.690;2022-10-16T00:04:11;15.40;;;8.80;;
71080;SDS011;58740;50.672;18.690;2022-10-16T00:06:39;12.90;;;7.60;;
71080;SDS011;58740;50.672;18.690;2022-10-16T00:09:07;14.80;;;7.00;;
71080;SDS011;58740;50.672;18.690;2022-10-16T00:11:38;12.90;;;7.50;;
71080;SDS011;58740;50.672;18.690;2022-10-16T00:14:11;13.60;;;7.40;;
71080;SDS011;58740;50.672;18.690;2022-10-16T00:16:41;12.10;;;7.40;;
71080;SDS011;58740;50.672;18.690;2022-10-16T00:19:11;13.80;;;8.70;;
71080;SDS011;58740;50.672;18.690;2022-10-16T00:21:39;13.20;;;8.00;;
71080;SDS011;58740;50.672;18.690;2022-10-16T00:24:09;11.30;;;6.50;;
71080;SDS011;58740;50.672;18.690;2022-10-16T00:26:39;13.20;;;8.10;;
71080;SDS011;58740;50.672;18.690;2022-10-16T00:29:07;15.10;;;8.10;;
71080;SDS011;58740;50.672;18.690;2022-10-16T00:31:35;12.30;;;7.50;;
71080;SDS011;58740;50.672;18.690;2022-10-16T00:34:03;14.40;;;7.80;;
71080;SDS011;58740;50.672;18.690;2022-10-16T00:36:31;14.30;;;7.90;;
71080;SDS011;58740;50.672;18.690;2022-10-16T00:38:59;12.10;;;6.10;;
71080;SDS011;58740;50.672;18.690;2022-10-16T00:41:30;16.20;;;8.30;;
71080;SDS011;58740;50.672;18.690;2022-10-16T00:44:00;13.40;;;8.50;;
71080;SDS011;58740;50.672;18.690;2022-10-16T00:46:38;14.80;;;8.10;;
71080;SDS011;58740;50.672;18.690;2022-10-16T00:49:09;13.60;;;7.90;;
71080;SDS011;58740;50.672;18.690;2022-10-16T00:51:47;13.80;;;8.10;;
71080;SDS011;58740;50.672;18.690;2022-10-16T00:54:24;13.90;;;8.10;;
71080;SDS011;58740;50.672;18.690;2022-10-16T00:56:56;15.30;;;8.20;;
71080;SDS011;58740;50.672;18.690;2022-10-16T00:59:30;13.50;;;7.30;;
71080;SDS011;58740;50.672;18.690;2022-10-16T01:01:59;12.70;;;7.60;;
71080;SDS011;58740;50.672;18.690;2022-10-16T01:04:33;18.30;;;9.00;;
71080;SDS011;58740;50.672;18.690;2022-10-16T01:07:22;17.30;;;7.50;;
71080;SDS011;58740;50.672;18.690;2022-10-16T01:15:34;14.50;;;8.20;;
71080;SDS011;58740;50.672;18.690;2022-10-16T01:21:22;11.50;;;6.40;;
71080;SDS011;58740;50.672;18.690;2022-10-16T01:24:03;12.80;;;7.70;;
71080;SDS011;58740;50.672;18.690;2022-10-16T01:27:14;13.50;;;8.60;;
71080;SDS011;58740;50.672;18.690;2022-10-16T01:30:01;11.00;;;6.50;;
71080;SDS011;58740;50.672;18.690;2022-10-16T01:32:40;11.60;;;7.30;;
71080;SDS011;58740;50.672;18.690;2022-10-16T01:35:14;13.20;;;7.70;;
71080;SDS011;58740;50.672;18.690;2022-10-16T01:38:06;14.40;;;7.70;;
71080;SDS011;58740;50.672;18.690;2022-10-16T01:40:40;19.90;;;8.20;;
71080;SDS011;58740;50.672;18.690;2022-10-16T01:43:18;14.80;;;7.80;;
71080;SDS011;58740;50.672;18.690;2022-10-16T01:45:50;15.20;;;8.10;;
71080;SDS011;58740;50.672;18.690;2022-10-16T01:48:20;15.00;;;7.80;;
71080;SDS011;58740;50.672;18.690;2022-10-16T01:51:19;14.10;;;7.70;;
71080;SDS011;58740;50.672;18.690;2022-10-16T01:53:50;15.40;;;8.10;;
71080;SDS011;58740;50.672;18.690;2022-10-16T01:56:22;17.10;;;7.70;;
71080;SDS011;58740;50.672;18.690;2022-10-16T01:59:10;14.20;;;8.70;;
71080;SDS011;58740;50.672;18.690;2022-10-16T02:01:48;13.70;;;8.40;;
71080;SDS011;58740;50.672;18.690;2022-10-16T02:04:53;15.30;;;7.70;;
71080;SDS011;58740;50.672;18.690;2022-10-16T02:07:25;15.10;;;7.70;;
71080;SDS011;58740;50.672;18.690;2022-10-16T02:09:53;15.50;;;8.00;;
71080;SDS011;58740;50.672;18.690;2022-10-16T02:12:31;12.80;;;8.50;;
71080;SDS011;58740;50.672;18.690;2022-10-16T02:15:03;13.70;;;8.40;;
71080;SDS011;58740;50.672;18.690;2022-10-16T02:17:31;15.20;;;7.60;;
71080;SDS011;58740;50.672;18.690;2022-10-16T02:19:59;15.70;;;8.70;;
71080;SDS011;58740;50.672;18.690;2022-10-16T02:22:34;14.90;;;7.80;;
71080;SDS011;58740;50.672;18.690;2022-10-16T02:25:26;12.90;;;7.40;;
71080;SDS011;58740;50.672;18.690;2022-10-16T02:28:21;14.30;;;8.00;;
71080;SDS011;58740;50.672;18.690;2022-10-16T02:31:01;12.40;;;7.40;;
71080;SDS011;58740;50.672;18.690;2022-10-16T02:33:33;13.80;;;7.60;;
71080;SDS011;58740;50.672;18.690;2022-10-16T02:36:03;15.70;;;8.70;;
71080;SDS011;58740;50.672;18.690;2022-10-16T02:38:32;16.50;;;8.70;;
71080;SDS011;58740;50.672;18.690;2022-10-16T02:41:00;16.00;;;8.10;;
71080;SDS011;58740;50.672;18.690;2022-10-16T02:43:28;11.50;;;6.80;;
71080;SDS011;58740;50.672;18.690;2022-10-16T02:45:56;16.60;;;8.00;;
71080;SDS011;58740;50.672;18.690;2022-10-16T02:48:23;15.60;;;8.60;;
71080;SDS011;58740;50.672;18.690;2022-10-16T02:50:51;15.90;;;8.50;;
71080;SDS011;58740;50.672;18.690;2022-10-16T02:53:19;14.30;;;8.50;;
71080;SDS011;58740;50.672;18.690;2022-10-16T02:55:47;14.30;;;9.00;;
71080;SDS011;58740;50.672;18.690;2022-10-16T02:58:14;12.80;;;7.10;;
71080;SDS011;58740;50.672;18.690;2022-10-16T03:00:42;15.50;;;7.50;;
71080;SDS011;58740;50.672;18.690;2022-10-16T03:03:10;17.80;;;8.70;;
71080;SDS011;58740;50.672;18.690;2022-10-16T03:05:38;15.50;;;8.80;;
71080;SDS011;58740;50.672;18.690;2022-10-16T03:08:05;12.40;;;7.50;;
71080;SDS011;58740;50.672;18.690;2022-10-16T03:10:33;14.50;;;8.50;;
71080;SDS011;58740;50.672;18.690;2022-10-16T03:13:00;18.50;;;8.70;;
71080;SDS011;58740;50.672;18.690;2022-10-16T03:15:28;14.40;;;7.90;;
71080;SDS011;58740;50.672;18.690;2022-10-16T03:17:59;15.50;;;8.10;;
71080;SDS011;58740;50.672;18.690;2022-10-16T03:20:27;15.20;;;8.50;;
71080;SDS011;58740;50.672;18.690;2022-10-16T03:22:55;18.70;;;9.10;;
71080;SDS011;58740;50.672;18.690;2022-10-16T03:25:22;14.20;;;8.30;;
71080;SDS011;58740;50.672;18.690;2022-10-16T03:27:50;13.80;;;8.70;;
71080;SDS011;58740;50.672;18.690;2022-10-16T03:30:18;13.20;;;7.30;;
71080;SDS011;58740;50.672;18.690;2022-10-16T03:32:46;15.00;;;7.80;;
71080;SDS011;58740;50.672;18.690;2022-10-16T03:35:13;16.30;;;7.70;;
71080;SDS011;58740;50.672;18.690;2022-10-16T03:37:41;15.80;;;8.70;;
71080;SDS011;58740;50.672;18.690;2022-10-16T03:40:09;16.70;;;8.70;;
71080;SDS011;58740;50.672;18.690;2022-10-16T03:42:37;16.60;;;8.00;;
71080;SDS011;58740;50.672;18.690;2022-10-16T03:45:05;16.10;;;9.00;;
71080;SDS011;58740;50.672;18.690;2022-10-16T03:47:33;16.10;;;8.60;;
71080;SDS011;58740;50.672;18.690;2022-10-16T03:50:01;18.10;;;9.40;;
71080;SDS011;58740;50.672;18.690;2022-10-16T03:52:29;15.00;;;8.10;;
71080;SDS011;58740;50.672;18.690;2022-10-16T03:54:57;12.10;;;7.00;;
71080;SDS011;58740;50.672;18.690;2022-10-16T03:57:25;13.30;;;7.90;;
71080;SDS011;58740;50.672;18.690;2022-10-16T03:59:53;14.40;;;8.20;;
71080;SDS011;58740;50.672;18.690;2022-10-16T04:02:21;16.00;;;8.60;;
71080;SDS011;58740;50.672;18.690;2022-10-16T04:04:48;15.10;;;8.30;;
71080;SDS011;58740;50.672;18.690;2022-10-16T04:07:16;16.10;;;8.40;;
71080;SDS011;58740;50.672;18.690;2022-10-16T04:09:44;16.50;;;8.80;;
71080;SDS011;58740;50.672;18.690;2022-10-16T04:12:11;13.40;;;7.30;;
71080;SDS011;58740;50.672;18.690;2022-10-16T04:14:39;15.40;;;8.40;;
71080;SDS011;58740;50.672;18.690;2022-10-16T04:17:07;15.30;;;8.00;;
71080;SDS011;58740;50.672;18.690;2022-10-16T04:19:34;14.10;;;8.70;;
71080;SDS011;58740;50.672;18.690;2022-10-16T04:22:02;14.80;;;8.60;;
71080;SDS011;58740;50.672;18.690;2022-10-16T04:24:30;14.60;;;8.60;;
71080;SDS011;58740;50.672;18.690;2022-10-16T04:26:57;15.70;;;8.90;;
71080;SDS011;58740;50.672;18.690;2022-10-16T04:29:25;15.60;;;7.70;;
71080;SDS011;58740;50.672;18.690;2022-10-16T04:31:52;14.40;;;8.80;;
71080;SDS011;58740;50.672;18.690;2022-10-16T04:34:20;16.40;;;9.00;;
71080;SDS011;58740;50.672;18.690;2022-10-16T04:36:48;14.40;;;7.70;;
71080;SDS011;58740;50.672;18.690;2022-10-16T04:39:19;14.50;;;8.40;;
71080;SDS011;58740;50.672;18.690;2022-10-16T04:41:46;15.00;;;8.80;;
71080;SDS011;58740;50.672;18.690;2022-10-16T04:44:14;16.50;;;9.40;;
71080;SDS011;58740;50.672;18.690;2022-10-16T04:46:42;14.80;;;7.50;;
71080;SDS011;58740;50.672;18.690;2022-10-16T04:49:10;11.90;;;7.00;;
71080;SDS011;58740;50.672;18.690;2022-10-16T04:51:37;13.30;;;7.50;;
71080;SDS011;58740;50.672;18.690;2022-10-16T04:54:05;16.10;;;7.70;;
71080;SDS011;58740;50.672;18.690;2022-10-16T04:56:32;15.40;;;8.20;;
71080;SDS011;58740;50.672;18.690;2022-10-16T04:59:07;16.40;;;7.80;;
71080;SDS011;58740;50.672;18.690;2022-10-16T05:01:34;14.20;;;8.20;;
71080;SDS011;58740;50.672;18.690;2022-10-16T05:04:02;12.70;;;7.10;;
71080;SDS011;58740;50.672;18.690;2022-10-16T05:06:30;13.90;;;7.10;;
71080;SDS011;58740;50.672;18.690;2022-10-16T05:08:58;12.10;;;7.90;;
71080;SDS011;58740;50.672;18.690;2022-10-16T05:11:25;13.10;;;8.30;;
71080;SDS011;58740;50.672;18.690;2022-10-16T05:13:53;15.40;;;8.20;;
71080;SDS011;58740;50.672;18.690;2022-10-16T05:16:22;12.30;;;6.80;;
71080;SDS011;58740;50.672;18.690;2022-10-16T05:18:51;15.90;;;8.10;;
71080;SDS011;58740;50.672;18.690;2022-10-16T05:21:30;13.60;;;7.20;;
71080;SDS011;58740;50.672;18.690;2022-10-16T05:23:58;15.20;;;7.20;;
71080;SDS011;58740;50.672;18.690;2022-10-16T05:26:25;12.50;;;7.60;;
71080;SDS011;58740;50.672;18.690;2022-10-16T05:28:53;14.80;;;7.10;;
71080;SDS011;58740;50.672;18.690;2022-10-16T05:31:21;13.20;;;8.10;;
71080;SDS011;58740;50.672;18.690;2022-10-16T05:33:48;13.80;;;8.10;;
71080;SDS011;58740;50.672;18.690;2022-10-16T05:36:21;12.20;;;5.50;;
71080;SDS011;58740;50.672;18.690;2022-10-16T05:38:50;14.40;;;7.80;;
71080;SDS011;58740;50.672;18.690;2022-10-16T05:41:18;13.30;;;7.50;;
71080;SDS011;58740;50.672;18.690;2022-10-16T05:43:48;14.60;;;8.00;;
71080;SDS011;58740;50.672;18.690;2022-10-16T05:46:17;13.30;;;6.10;;
71080;SDS011;58740;50.672;18.690;2022-10-16T05:48:44;17.30;;;7.10;;
71080;SDS011;58740;50.672;18.690;2022-10-16T05:51:14;13.20;;;8.00;;
71080;SDS011;58740;50.672;18.690;2022-10-16T05:53:42;13.30;;;7.80;;
71080;SDS011;58740;50.672;18.690;2022-10-16T05:56:15;15.20;;;8.60;;
71080;SDS011;58740;50.672;18.690;2022-10-16T05:58:44;12.40;;;7.00;;
71080;SDS011;58740;50.672;18.690;2022-10-16T06:01:14;12.90;;;6.50;;
71080;SDS011;58740;50.672;18.690;2022-10-16T06:03:46;14.30;;;8.00;;
71080;SDS011;58740;50.672;18.690;2022-10-16T06:06:23;13.10;;;7.90;;
71080;SDS011;58740;50.672;18.690;2022-10-16T06:08:54;13.10;;;7.20;;
71080;SDS011;58740;50.672;18.690;2022-10-16T06:11:26;14.40;;;7.90;;
71080;SDS011;58740;50.672;18.690;2022-10-16T06:13:58;17.60;;;8.20;;
71080;SDS011;58740;50.672;18.690;2022-10-16T06:16:29;14.20;;;7.90;;
71080;SDS011;58740;50.672;18.690;2022-10-16T06:18:57;13.00;;;6.30;;
71080;SDS011;58740;50.672;18.690;2022-10-16T06:21:27;11.70;;;7.40;;
71080;SDS011;58740;50.672;18.690;2022-10-16T06:23:57;12.70;;;8.10;;
71080;SDS011;58740;50.672;18.690;2022-10-16T06:26:27;13.00;;;7.00;;
71080;SDS011;58740;50.672;18.690;2022-10-16T06:28:57;18.00;;;7.70;;
71080;SDS011;58740;50.672;18.690;2022-10-16T06:31:28;12.70;;;7.40;;
71080;SDS011;58740;50.672;18.690;2022-10-16T06:33:58;13.70;;;8.40;;
71080;SDS011;58740;50.672;18.690;2022-10-16T06:36:26;12.40;;;6.70;;
71080;SDS011;58740;50.672;18.690;2022-10-16T06:38:55;11.80;;;5.50;;
71080;SDS011;58740;50.672;18.690;2022-10-16T06:41:23;14.30;;;7.60;;
71080;SDS011;58740;50.672;18.690;2022-10-16T06:43:50;11.10;;;6.20;;
71080;SDS011;58740;50.672;18.690;2022-10-16T06:46:22;13.60;;;7.40;;
71080;SDS011;58740;50.672;18.690;2022-10-16T06:48:52;16.30;;;8.40;;
71080;SDS011;58740;50.672;18.690;2022-10-16T06:51:21;14.40;;;8.20;;
71080;SDS011;58740;50.672;18.690;2022-10-16T06:53:52;12.70;;;7.20;;
71080;SDS011;58740;50.672;18.690;2022-10-16T06:56:32;17.20;;;7.10;;
71080;SDS011;58740;50.672;18.690;2022-10-16T06:59:01;11.60;;;6.80;;
71080;SDS011;58740;50.672;18.690;2022-10-16T07:01:29;13.30;;;6.60;;
71080;SDS011;58740;50.672;18.690;2022-10-16T07:03:57;15.00;;;8.00;;
71080;SDS011;58740;50.672;18.690;2022-10-16T07:06:26;14.00;;;7.00;;
71080;SDS011;58740;50.672;18.690;2022-10-16T07:08:54;12.60;;;8.20;;
71080;SDS011;58740;50.672;18.690;2022-10-16T07:11:23;13.10;;;7.00;;
71080;SDS011;58740;50.672;18.690;2022-10-16T07:13:51;12.30;;;7.10;;
71080;SDS011;58740;50.672;18.690;2022-10-16T07:16:25;11.90;;;6.40;;
71080;SDS011;58740;50.672;18.690;2022-10-16T07:18:58;13.10;;;7.70;;
71080;SDS011;58740;50.672;18.690;2022-10-16T07:21:30;11.50;;;6.40;;
71080;SDS011;58740;50.672;18.690;2022-10-16T07:24:05;13.90;;;7.40;;
71080;SDS011;58740;50.672;18.690;2022-10-16T07:26:36;13.20;;;7.50;;
71080;SDS011;58740;50.672;18.690;2022-10-16T07:29:11;14.00;;;7.80;;
71080;SDS011;58740;50.672;18.690;2022-10-16T07:31:41;12.30;;;7.00;;
71080;SDS011;58740;50.672;18.690;2022-10-16T07:34:14;14.90;;;7.20;;
71080;SDS011;58740;50.672;18.690;2022-10-16T07:36:43;15.00;;;7.40;;
71080;SDS011;58740;50.672;18.690;2022-10-16T07:39:11;13.20;;;7.20;;
71080;SDS011;58740;50.672;18.690;2022-10-16T07:41:38;11.50;;;6.90;;
71080;SDS011;58740;50.672;18.690;2022-10-16T07:44:06;12.90;;;7.60;;
71080;SDS011;58740;50.672;18.690;2022-10-16T07:46:35;16.00;;;7.90;;
71080;SDS011;58740;50.672;18.690;2022-10-16T07:49:03;13.30;;;8.20;;
71080;SDS011;58740;50.672;18.690;2022-10-16T07:51:32;10.70;;;6.00;;
71080;SDS011;58740;50.672;18.690;2022-10-16T07:54:00;14.80;;;8.50;;
71080;SDS011;58740;50.672;18.690;2022-10-16T07:56:30;13.20;;;7.50;;
71080;SDS011;58740;50.672;18.690;2022-10-16T07:58:59;13.30;;;7.80;;
71080;SDS011;58740;50.672;18.690;2022-10-16T08:01:27;16.20;;;8.20;;
71080;SDS011;58740;50.672;18.690;2022-10-16T08:03:55;13.90;;;7.40;;
71080;SDS011;58740;50.672;18.690;2022-10-16T08:06:23;14.90;;;7.20;;
71080;SDS011;58740;50.672;18.690;2022-10-16T08:08:55;16.10;;;7.20;;
71080;SDS011;58740;50.672;18.690;2022-10-16T08:11:23;13.00;;;6.80;;
71080;SDS011;58740;50.672;18.690;2022-10-16T08:13:51;12.30;;;7.30;;
71080;SDS011;58740;50.672;18.690;2022-10-16T08:16:19;13.70;;;7.10;;
71080;SDS011;58740;50.672;18.690;2022-10-16T08:18:47;14.30;;;7.40;;
71080;SDS011;58740;50.672;18.690;2022-10-16T08:21:18;15.70;;;8.00;;
71080;SDS011;58740;50.672;18.690;2022-10-16T08:23:49;11.40;;;7.10;;
71080;SDS011;58740;50.672;18.690;2022-10-16T08:26:26;12.70;;;7.10;;
71080;SDS011;58740;50.672;18.690;2022-10-16T08:28:55;12.20;;;6.70;;
71080;SDS011;58740;50.672;18.690;2022-10-16T08:31:24;14.00;;;7.50;;
71080;SDS011;58740;50.672;18.690;2022-10-16T08:33:51;13.50;;;8.50;;
71080;SDS011;58740;50.672;18.690;2022-10-16T08:36:20;15.90;;;8.40;;
71080;SDS011;58740;50.672;18.690;2022-10-16T08:38:48;14.30;;;8.80;;
71080;SDS011;58740;50.672;18.690;2022-10-16T08:41:36;11.60;;;7.90;;
71080;SDS011;58740;50.672;18.690;2022-10-16T08:50:27;14.90;;;7.70;;
71080;SDS011;58740;50.672;18.690;2022-10-16T08:52:57;14.50;;;8.70;;
71080;SDS011;58740;50.672;18.690;2022-10-16T08:55:52;13.90;;;8.50;;
71080;SDS011;58740;50.672;18.690;2022-10-16T08:58:30;14.60;;;9.10;;
71080;SDS011;58740;50.672;18.690;2022-10-16T09:01:19;11.70;;;5.70;;
71080;SDS011;58740;50.672;18.690;2022-10-16T09:06:50;15.60;;;9.10;;
71080;SDS011;58740;50.672;18.690;2022-10-16T09:09:30;13.70;;;7.80;;
71080;SDS011;58740;50.672;18.690;2022-10-16T09:14:59;15.70;;;8.60;;
71080;SDS011;58740;50.672;18.690;2022-10-16T09:17:49;16.90;;;8.10;;
71080;SDS011;58740;50.672;18.690;2022-10-16T09:20:49;15.10;;;8.50;;
71080;SDS011;58740;50.672;18.690;2022-10-16T09:23:28;17.00;;;10.00;;
71080;SDS011;58740;50.672;18.690;2022-10-16T09:25:58;14.20;;;8.90;;
71080;SDS011;58740;50.672;18.690;2022-10-16T09:28:26;13.40;;;8.60;;
71080;SDS011;58740;50.672;18.690;2022-10-16T09:30:54;16.50;;;10.00;;
71080;SDS011;58740;50.672;18.690;2022-10-16T09:33:25;14.00;;;8.70;;
71080;SDS011;58740;50.672;18.690;2022-10-16T09:35:57;14.20;;;8.60;;
71080;SDS011;58740;50.672;18.690;2022-10-16T09:38:28;13.50;;;8.00;;
71080;SDS011;58740;50.672;18.690;2022-10-16T09:41:11;16.10;;;8.40;;
71080;SDS011;58740;50.672;18.690;2022-10-16T09:43:56;15.20;;;8.80;;
71080;SDS011;58740;50.672;18.690;2022-10-16T09:46:33;15.40;;;9.00;;
71080;SDS011;58740;50.672;18.690;2022-10-16T09:49:05;18.30;;;8.70;;
71080;SDS011;58740;50.672;18.690;2022-10-16T09:51:50;12.20;;;7.70;;
71080;SDS011;58740;50.672;18.690;2022-10-16T09:54:20;12.00;;;7.50;;
71080;SDS011;58740;50.672;18.690;2022-10-16T09:56:48;12.90;;;7.50;;
71080;SDS011;58740;50.672;18.690;2022-10-16T09:59:21;12.40;;;8.00;;
71080;SDS011;58740;50.672;18.690;2022-10-16T10:01:54;16.10;;;8.30;;
71080;SDS011;58740;50.672;18.690;2022-10-16T10:04:23;14.00;;;8.00;;
71080;SDS011;58740;50.672;18.690;2022-10-16T10:06:54;12.60;;;8.40;;
71080;SDS011;58740;50.672;18.690;2022-10-16T10:09:26;14.20;;;8.70;;
71080;SDS011;58740;50.672;18.690;2022-10-16T10:11:59;12.70;;;7.90;;
71080;SDS011;58740;50.672;18.690;2022-10-16T10:17:26;15.10;;;8.30;;
71080;SDS011;58740;50.672;18.690;2022-10-16T10:19:58;13.40;;;7.30;;
71080;SDS011;58740;50.672;18.690;2022-10-16T10:22:53;14.80;;;7.70;;
71080;SDS011;58740;50.672;18.690;2022-10-16T10:31:46;14.10;;;8.00;;
71080;SDS011;58740;50.672;18.690;2022-10-16T10:35:12;15.00;;;7.90;;
71080;SDS011;58740;50.672;18.690;2022-10-16T10:43:43;13.00;;;8.50;;
71080;SDS011;58740;50.672;18.690;2022-10-16T10:46:41;13.50;;;8.20;;
71080;SDS011;58740;50.672;18.690;2022-10-16T10:58:25;13.50;;;8.20;;
71080;SDS011;58740;50.672;18.690;2022-10-16T11:06:59;14.70;;;8.20;;
71080;SDS011;58740;50.672;18.690;2022-10-16T11:09:45;15.80;;;8.90;;
71080;SDS011;58740;50.672;18.690;2022-10-16T11:12:23;15.80;;;8.40;;
71080;SDS011;58740;50.672;18.690;2022-10-16T11:15:15;14.00;;;8.30;;
71080;SDS011;58740;50.672;18.690;2022-10-16T11:18:15;15.30;;;8.10;;
71080;SDS011;58740;50.672;18.690;2022-10-16T11:21:03;15.20;;;8.30;;
71080;SDS011;58740;50.672;18.690;2022-10-16T11:24:18;13.70;;;8.00;;
71080;SDS011;58740;50.672;18.690;2022-10-16T11:26:52;14.50;;;8.30;;
71080;SDS011;58740;50.672;18.690;2022-10-16T11:29:30;18.60;;;8.20;;
71080;SDS011;58740;50.672;18.690;2022-10-16T11:32:04;14.30;;;7.80;;
71080;SDS011;58740;50.672;18.690;2022-10-16T11:34:48;14.50;;;8.90;;
71080;SDS011;58740;50.672;18.690;2022-10-16T11:37:23;15.20;;;8.40;;
71080;SDS011;58740;50.672;18.690;2022-10-16T11:40:05;15.10;;;7.80;;
71080;SDS011;58740;50.672;18.690;2022-10-16T11:42:58;14.60;;;8.00;;
71080;SDS011;58740;50.672;18.690;2022-10-16T11:45:39;14.30;;;8.90;;
71080;SDS011;58740;50.672;18.690;2022-10-16T11:48:28;15.60;;;8.30;;
71080;SDS011;58740;50.672;18.690;2022-10-16T11:51:11;15.10;;;8.90;;
71080;SDS011;58740;50.672;18.690;2022-10-16T11:56:46;15.10;;;8.30;;
71080;SDS011;58740;50.672;18.690;2022-10-16T11:59:32;12.60;;;8.60;;
71080;SDS011;58740;50.672;18.690;2022-10-16T12:02:30;12.00;;;7.60;;
71080;SDS011;58740;50.672;18.690;2022-10-16T12:08:08;12.80;;;7.80;;
71080;SDS011;58740;50.672;18.690;2022-10-16T12:10:40;13.60;;;8.30;;
71080;SDS011;58740;50.672;18.690;2022-10-16T12:18:44;16.60;;;8.10;;
71080;SDS011;58740;50.672;18.690;2022-10-16T12:21:15;13.60;;;8.30;;
71080;SDS011;58740;50.672;18.690;2022-10-16T12:23:51;15.20;;;9.40;;
71080;SDS011;58740;50.672;18.690;2022-10-16T12:26:29;14.80;;;9.00;;
71080;SDS011;58740;50.672;18.690;2022-10-16T12:29:14;13.10;;;7.50;;
71080;SDS011;58740;50.672;18.690;2022-10-16T12:31:51;12.40;;;8.40;;
71080;SDS011;58740;50.672;18.690;2022-10-16T12:34:29;13.70;;;9.30;;
71080;SDS011;58740;50.672;18.690;2022-10-16T12:37:11;15.90;;;9.30;;
71080;SDS011;58740;50.672;18.690;2022-10-16T12:39:40;14.60;;;8.30;;
71080;SDS011;58740;50.672;18.690;2022-10-16T12:42:38;13.50;;;7.70;;
71080;SDS011;58740;50.672;18.690;2022-10-16T12:45:26;13.10;;;8.40;;
71080;SDS011;58740;50.672;18.690;2022-10-16T12:48:01;12.80;;;8.40;;
71080;SDS011;58740;50.672;18.690;2022-10-16T12:50:35;8.20;;;4.30;;
71080;SDS011;58740;50.672;18.690;2022-10-16T12:53:18;12.40;;;7.90;;
71080;SDS011;58740;50.672;18.690;2022-10-16T12:56:04;12.70;;;8.00;;
71080;SDS011;58740;50.672;18.690;2022-10-16T12:59:01;13.60;;;8.50;;
71080;SDS011;58740;50.672;18.690;2022-10-16T13:05:12;11.50;;;7.10;;
71080;SDS011;58740;50.672;18.690;2022-10-16T13:08:00;14.00;;;8.10;;
71080;SDS011;58740;50.672;18.690;2022-10-16T13:27:58;13.70;;;7.60;;
71080;SDS011;58740;50.672;18.690;2022-10-16T13:30:30;14.40;;;7.60;;
71080;SDS011;58740;50.672;18.690;2022-10-16T13:33:06;13.00;;;7.60;;
71080;SDS011;58740;50.672;18.690;2022-10-16T13:35:47;14.00;;;7.90;;
71080;SDS011;58740;50.672;18.690;2022-10-16T13:38:21;13.10;;;7.90;;
71080;SDS011;58740;50.672;18.690;2022-10-16T13:40:58;15.30;;;7.30;;
71080;SDS011;58740;50.672;18.690;2022-10-16T13:43:37;13.00;;;7.90;;
71080;SDS011;58740;50.672;18.690;2022-10-16T13:46:13;14.70;;;8.10;;
71080;SDS011;58740;50.672;18.690;2022-10-16T13:49:01;12.70;;;7.80;;
71080;SDS011;58740;50.672;18.690;2022-10-16T13:51:39;16.20;;;8.00;;
71080;SDS011;58740;50.672;18.690;2022-10-16T13:54:09;15.40;;;7.30;;
71080;SDS011;58740;50.672;18.690;2022-10-16T13:56:39;11.70;;;7.50;;
71080;SDS011;58740;50.672;18.690;2022-10-16T13:59:23;12.00;;;7.80;;
71080;SDS011;58740;50.672;18.690;2022-10-16T14:01:55;12.60;;;7.60;;
71080;SDS011;58740;50.672;18.690;2022-10-16T14:04:27;11.20;;;7.20;;
71080;SDS011;58740;50.672;18.690;2022-10-16T14:06:59;14.80;;;8.40;;
71080;SDS011;58740;50.672;18.690;2022-10-16T14:09:29;13.90;;;7.70;;
71080;SDS011;58740;50.672;18.690;2022-10-16T14:12:00;13.30;;;7.00;;
71080;SDS011;58740;50.672;18.690;2022-10-16T14:14:51;14.30;;;8.00;;
71080;SDS011;58740;50.672;18.690;2022-10-16T14:17:29;13.20;;;8.40;;
71080;SDS011;58740;50.672;18.690;2022-10-16T14:20:02;13.90;;;8.50;;
71080;SDS011;58740;50.672;18.690;2022-10-16T14:22:39;13.80;;;8.50;;
71080;SDS011;58740;50.672;18.690;2022-10-16T14:28:01;15.80;;;7.90;;
71080;SDS011;58740;50.672;18.690;2022-10-16T14:30:34;13.80;;;7.80;;
71080;SDS011;58740;50.672;18.690;2022-10-16T14:33:06;12.80;;;7.60;;
71080;SDS011;58740;50.672;18.690;2022-10-16T14:36:00;12.90;;;8.00;;
71080;SDS011;58740;50.672;18.690;2022-10-16T14:38:30;17.20;;;7.90;;
71080;SDS011;58740;50.672;18.690;2022-10-16T14:41:00;14.20;;;8.90;;
71080;SDS011;58740;50.672;18.690;2022-10-16T14:43:39;13.60;;;8.20;;
71080;SDS011;58740;50.672;18.690;2022-10-16T14:46:13;15.80;;;9.60;;
71080;SDS011;58740;50.672;18.690;2022-10-16T14:48:48;13.50;;;8.90;;
71080;SDS011;58740;50.672;18.690;2022-10-16T14:51:18;14.90;;;8.90;;
71080;SDS011;58740;50.672;18.690;2022-10-16T14:53:47;15.00;;;9.00;;
71080;SDS011;58740;50.672;18.690;2022-10-16T14:56:18;17.00;;;8.30;;
71080;SDS011;58740;50.672;18.690;2022-10-16T14:58:49;17.40;;;9.80;;
71080;SDS011;58740;50.672;18.690;2022-10-16T15:01:19;16.70;;;9.30;;
71080;SDS011;58740;50.672;18.690;2022-10-16T15:03:47;17.30;;;10.20;;
71080;SDS011;58740;50.672;18.690;2022-10-16T15:06:16;18.90;;;10.20;;
71080;SDS011;58740;50.672;18.690;2022-10-16T15:08:43;17.10;;;9.60;;
71080;SDS011;58740;50.672;18.690;2022-10-16T15:11:17;17.60;;;10.30;;
71080;SDS011;58740;50.672;18.690;2022-10-16T15:13:46;16.30;;;10.00;;
71080;SDS011;58740;50.672;18.690;2022-10-16T15:16:15;18.40;;;10.40;;
71080;SDS011;58740;50.672;18.690;2022-10-16T15:18:43;22.00;;;11.60;;
71080;SDS011;58740;50.672;18.690;2022-10-16T15:21:31;15.50;;;9.00;;
71080;SDS011;58740;50.672;18.690;2022-10-16T15:24:00;17.00;;;8.70;;
71080;SDS011;58740;50.672;18.690;2022-10-16T15:26:29;20.60;;;9.80;;
71080;SDS011;58740;50.672;18.690;2022-10-16T15:28:57;36.40;;;13.90;;
71080;SDS011;58740;50.672;18.690;2022-10-16T15:31:25;27.40;;;12.30;;
71080;SDS011;58740;50.672;18.690;2022-10-16T15:33:54;25.50;;;11.70;;
71080;SDS011;58740;50.672;18.690;2022-10-16T15:36:27;20.60;;;10.50;;
71080;SDS011;58740;50.672;18.690;2022-10-16T15:38:56;20.70;;;11.00;;
71080;SDS011;58740;50.672;18.690;2022-10-16T15:41:24;22.70;;;10.90;;
71080;SDS011;58740;50.672;18.690;2022-10-16T15:43:52;16.10;;;10.30;;
71080;SDS011;58740;50.672;18.690;2022-10-16T15:46:22;18.70;;;10.10;;
71080;SDS011;58740;50.672;18.690;2022-10-16T15:48:56;18.40;;;10.80;;
71080;SDS011;58740;50.672;18.690;2022-10-16T15:51:26;19.10;;;10.40;;
71080;SDS011;58740;50.672;18.690;2022-10-16T15:53:56;22.70;;;12.10;;
71080;SDS011;58740;50.672;18.690;2022-10-16T15:56:24;20.20;;;11.60;;
71080;SDS011;58740;50.672;18.690;2022-10-16T15:58:53;16.40;;;11.00;;
71080;SDS011;58740;50.672;18.690;2022-10-16T16:01:21;16.40;;;10.70;;
71080;SDS011;58740;50.672;18.690;2022-10-16T16:03:53;20.10;;;10.50;;
71080;SDS011;58740;50.672;18.690;2022-10-16T16:06:22;15.70;;;9.50;;
71080;SDS011;58740;50.672;18.690;2022-10-16T16:08:52;17.80;;;9.50;;
71080;SDS011;58740;50.672;18.690;2022-10-16T16:11:21;15.90;;;10.10;;
71080;SDS011;58740;50.672;18.690;2022-10-16T16:13:51;18.80;;;10.20;;
71080;SDS011;58740;50.672;18.690;2022-10-16T16:16:18;18.20;;;10.70;;
71080;SDS011;58740;50.672;18.690;2022-10-16T16:18:47;18.50;;;10.60;;
71080;SDS011;58740;50.672;18.690;2022-10-16T16:21:16;17.40;;;11.40;;
71080;SDS011;58740;50.672;18.690;2022-10-16T16:23:44;17.00;;;11.30;;